Novato, CA

1:02 PM PDT on April 28, 2017 (GMT -0700)
Hidden Oaks | | Change Station

Elev 79 ft 38.12 °N, 122.58 °W | Updated 22 seconds ago

Clear
Clear
74.3 °F
Feels Like 76 °F
N
1.3
Wind Variable Wind from NNW
Gusts 2.5 mph

Today
High -- | Low -- °F
--% Chance of Precip.
Yesterday
High -- | Low -- °F
Precip. -- in
Pressure 30.01 in
Visibility 10.0 miles
Clouds Clear
Heat Index 76 °F
Dew Point 35 °F
Humidity 24%
Rainfall 0.00 in
Snow Depth Not available.
6:17 AM 7:58 PM
Waxing Crescent, 8% visible
METAR KAPC 281954Z 03012KT 10SM CLR 24/M02 A3004 RMK AO2 SLP163 T02441017
Pressure 30.01 in
Visibility 10.0 miles
Clouds Clear
Heat Index 76 °F
Dew Point 35 °F
Humidity 24%
Rainfall 0.00 in
Snow Depth Not available.
6:17 AM 7:58 PM
Waxing Crescent, 8% visible
METAR KAPC 281954Z 03012KT 10SM CLR 24/M02 A3004 RMK AO2 SLP163 T02441017

Get Severe Weather Alerts

Thanks for signing up!

Be on the lookout for a verification email in your inbox.

You'll start receiving the daily forecast at 8 AM.

×

10-Day Weather Forecast

Almanac

Astronomy

Apr. 28, 2017 Rise Set
Actual Time
Civil Twilight
Nautical Twilight
Astronomical Twilight
Moon
Length of Visible Light
Length of Day
Tomorrow will be .
, % of the Moon is Illuminated

Today's Extremes

State Highs State Lows

Community

WunderPhotos

WunderBlog® & News

Nearby

Air Quality

  Air Quality AQ Index Pollutant
Not available.

Snow Depth

Station Depth Elevation

Earthquake Activity

City Distance Mag. Time & Date
Minimum magnitude displayed is 2.5.

Coastal Water Temperatures

Place Temperature

Stations

Nearby Weather Stations

Station Location Temp. Windchill Dew Point Humidity Wind Precip. Elev Updated Type
                   

Watches & Warnings

There are currently no watches in effect.